createdAt,value
2019-05-18T00:01:09.735Z,99450.56
2019-05-18T00:03:39.681Z,99450.12
2019-05-18T00:06:09.181Z,99454.91
2019-05-18T00:08:38.290Z,99454.25
2019-05-18T00:11:07.633Z,99456.69
2019-05-18T00:13:37.009Z,99460.31
2019-05-18T00:16:06.141Z,99457.73
2019-05-18T00:18:35.228Z,99456.71
2019-05-18T00:21:04.674Z,99461.69
2019-05-18T00:23:33.871Z,99459.22
2019-05-18T00:26:05.710Z,99467.54
2019-05-18T00:28:35.240Z,99461.91
2019-05-18T00:31:07.169Z,99467.68
2019-05-18T00:33:36.235Z,99464.14
2019-05-18T00:36:07.424Z,99466.31
2019-05-18T00:38:36.562Z,99469.81
2019-05-18T00:41:06.044Z,99468.41
2019-05-18T00:43:35.163Z,99466.91
2019-05-18T00:46:07.238Z,99452.30
2019-05-18T00:48:36.613Z,99454.55
2019-05-18T00:51:05.747Z,99447.90
2019-05-18T00:53:34.880Z,99442.07
2019-05-18T00:56:07.309Z,99446.73
2019-05-18T00:58:36.386Z,99442.84
2019-05-18T01:01:05.554Z,99441.02
2019-05-18T01:03:34.967Z,99442.80
2019-05-18T01:06:05.584Z,99442.14
2019-05-18T01:08:34.705Z,99441.02
2019-05-18T01:11:04.139Z,99448.59
2019-05-18T01:13:33.404Z,99448.40
2019-05-18T01:16:03.463Z,99447.41
2019-05-18T01:18:32.846Z,99445.66
2019-05-18T01:21:01.953Z,99440.36
2019-05-18T01:23:31.200Z,99437.86
2019-05-18T01:26:00.605Z,99432.44
2019-05-18T01:28:29.722Z,99435.72
2019-05-18T01:30:58.862Z,99439.45
2019-05-18T01:33:28.334Z,99441.06
2019-05-18T01:35:57.425Z,99432.61
2019-05-18T01:38:26.528Z,99423.13
2019-05-18T01:40:56.039Z,99424.81
2019-05-18T01:43:25.143Z,99426.89
2019-05-18T01:45:54.266Z,99424.50
2019-05-18T01:48:23.615Z,99426.89
2019-05-18T01:50:52.705Z,99426.01
2019-05-18T01:53:21.842Z,99430.13
2019-05-18T01:55:51.350Z,99424.36
2019-05-18T01:58:20.425Z,99420.50
2019-05-18T02:00:49.535Z,99420.31
2019-05-18T02:03:18.912Z,99419.73
2019-05-18T02:05:48.004Z,99411.98
2019-05-18T02:08:17.968Z,99409.27
2019-05-18T02:10:47.360Z,99413.25
2019-05-18T02:13:17.501Z,99416.53
2019-05-18T02:15:46.650Z,99408.84
2019-05-18T02:18:28.345Z,99405.56
2019-05-18T02:20:47.112Z,99400.74
2019-05-18T02:23:16.441Z,99402.07
2019-05-18T02:25:45.857Z,99396.89
2019-05-18T02:28:14.934Z,99402.07
2019-05-18T02:30:44.041Z,99406.37
2019-05-18T02:33:15.714Z,99404.66
2019-05-18T02:35:44.890Z,99406.47
2019-05-18T02:38:17.054Z,99402.67
2019-05-18T02:40:47.105Z,99406.77
2019-05-18T02:43:16.371Z,99405.17
2019-05-18T02:45:45.505Z,99400.41
2019-05-18T02:48:15.007Z,99401.02
2019-05-18T02:50:44.077Z,99394.57
2019-05-18T02:53:13.257Z,99403.16
2019-05-18T02:55:42.634Z,99405.17
2019-05-18T02:58:11.710Z,99398.30
2019-05-18T03:00:40.855Z,99405.44
2019-05-18T03:03:10.253Z,99405.31
2019-05-18T03:05:39.361Z,99403.86
2019-05-18T03:08:08.464Z,99402.05
2019-05-18T03:10:38.724Z,99407.63
2019-05-18T03:13:07.856Z,99412.53
2019-05-18T03:15:36.934Z,99410.94
2019-05-18T03:18:06.342Z,99402.30
2019-05-18T03:20:35.379Z,99408.92
2019-05-18T03:23:04.502Z,99410.73
2019-05-18T03:25:33.873Z,99422.52
2019-05-18T03:28:06.026Z,99422.98
2019-05-18T03:30:35.172Z,99422.08
2019-05-18T03:33:04.247Z,99419.29
2019-05-18T03:35:33.955Z,99416.94
2019-05-18T03:38:05.462Z,99423.33
2019-05-18T03:40:34.560Z,99418.81
2019-05-18T03:43:03.642Z,99422.42
2019-05-18T03:45:33.027Z,99421.80
2019-05-18T03:48:04.271Z,99421.72
2019-05-18T03:50:33.361Z,99424.34
2019-05-18T03:53:02.812Z,99429.56
2019-05-18T03:55:33.017Z,99423.47
2019-05-18T03:58:04.988Z,99420.50
2019-05-18T04:00:34.421Z,99421.94
2019-05-18T04:03:03.508Z,99422.71
2019-05-18T04:05:32.872Z,99420.21
2019-05-18T04:08:02.499Z,99423.08
2019-05-18T04:10:31.576Z,99422.64
2019-05-18T04:13:01.813Z,99424.66
2019-05-18T04:15:30.944Z,99423.63
2019-05-18T04:18:00.033Z,99417.64
2019-05-18T04:20:30.470Z,99427.75
2019-05-18T04:22:59.577Z,99433.43
2019-05-18T04:25:28.648Z,99432.25
2019-05-18T04:27:57.724Z,99441.57
2019-05-18T04:30:26.843Z,99441.94
2019-05-18T04:32:56.212Z,99439.83
2019-05-18T04:35:25.303Z,99440.92
2019-05-18T04:37:54.396Z,99444.03
2019-05-18T04:40:23.739Z,99442.89
2019-05-18T04:42:52.829Z,99440.34
2019-05-18T04:45:21.991Z,99436.09
2019-05-18T04:47:51.364Z,99439.73
2019-05-18T04:50:20.442Z,99440.22
2019-05-18T04:52:49.559Z,99436.86
2019-05-18T04:55:18.925Z,99437.41
2019-05-18T04:57:48.006Z,99438.56
2019-05-18T05:00:18.143Z,99443.63
2019-05-18T05:02:47.505Z,99443.59
2019-05-18T05:05:16.609Z,99440.42
2019-05-18T05:07:45.728Z,99449.41
2019-05-18T05:10:15.112Z,99443.56
2019-05-18T05:12:44.182Z,99445.47
2019-05-18T05:15:13.345Z,99452.37
2019-05-18T05:17:42.735Z,99450.64
2019-05-18T05:20:19.804Z,99453.83
2019-05-18T05:22:42.960Z,99449.39
2019-05-18T05:25:12.362Z,99446.11
2019-05-18T05:27:41.576Z,99453.09
2019-05-18T05:30:10.762Z,99456.14
2019-05-18T05:32:40.165Z,99455.59
2019-05-18T05:35:09.272Z,99456.20
2019-05-18T05:37:38.411Z,99453.57
2019-05-18T05:40:08.371Z,99451.81
2019-05-18T05:42:37.698Z,99451.42
2019-05-18T05:45:09.829Z,99454.25
2019-05-18T05:47:39.399Z,99453.27
2019-05-18T05:50:08.614Z,99458.48
2019-05-18T05:52:37.706Z,99456.20
2019-05-18T05:55:10.485Z,99457.09
2019-05-18T05:57:44.577Z,99460.84
2019-05-18T06:00:17.739Z,99465.11
2019-05-18T06:02:48.399Z,99465.00
2019-05-18T06:05:19.182Z,99463.19
2019-05-18T06:07:48.630Z,99467.50
2019-05-18T06:10:18.571Z,99478.30
2019-05-18T06:13:02.270Z,99477.95
2019-05-18T06:15:37.482Z,99476.39
2019-05-18T06:18:11.815Z,99473.60
2019-05-18T06:20:51.633Z,99478.50
2019-05-18T06:23:23.226Z,99480.63
2019-05-18T06:25:52.776Z,99473.56
2019-05-18T06:28:23.894Z,99470.03
2019-05-18T06:30:53.012Z,99468.94
2019-05-18T06:33:22.370Z,99467.09
2019-05-18T06:35:51.478Z,99463.62
2019-05-18T06:38:20.630Z,99469.80
2019-05-18T06:40:50.024Z,99467.52
2019-05-18T06:43:21.276Z,99463.80
2019-05-18T06:45:50.588Z,99471.34
2019-05-18T06:48:19.994Z,99463.64
2019-05-18T06:50:49.383Z,99475.24
2019-05-18T06:53:19.854Z,99474.70
2019-05-18T06:55:49.922Z,99470.43
2019-05-18T06:58:19.121Z,99475.16
2019-05-18T07:00:48.220Z,99474.11
2019-05-18T07:03:17.871Z,99483.54
2019-05-18T07:05:47.158Z,99482.06
2019-05-18T07:08:16.266Z,99485.70
2019-05-18T07:10:45.742Z,99488.23
2019-05-18T07:13:14.854Z,99490.25
2019-05-18T07:15:44.007Z,99484.73
2019-05-18T07:18:14.471Z,99486.83
2019-05-18T07:20:43.637Z,99488.22
2019-05-18T07:23:12.924Z,99483.88
2019-05-18T07:25:43.406Z,99485.58
2019-05-18T07:28:12.561Z,99487.52
2019-05-18T07:30:41.723Z,99489.28
2019-05-18T07:36:46.999Z,99485.20
2019-05-18T07:39:16.429Z,99486.40
2019-05-18T07:41:47.122Z,99482.44
2019-05-18T07:44:17.461Z,99478.66
2019-05-18T07:46:46.641Z,99477.53
2019-05-18T07:49:16.815Z,99474.34
2019-05-18T07:51:49.125Z,99470.91
2019-05-18T07:54:18.804Z,99475.09
2019-05-18T07:56:48.007Z,99482.36
2019-05-18T07:59:19.855Z,99475.81
2019-05-18T08:01:49.044Z,99476.75
2019-05-18T08:04:18.776Z,99480.33
2019-05-18T08:06:55.366Z,99484.04
2019-05-18T08:09:24.478Z,99476.19
2019-05-18T08:11:53.586Z,99480.39
2019-05-18T08:14:22.707Z,99474.47
2019-05-18T08:16:51.860Z,99474.55
2019-05-18T08:19:21.247Z,99477.55
2019-05-18T08:21:53.550Z,99473.87
2019-05-18T08:24:22.345Z,99475.73
2019-05-18T08:26:51.748Z,99471.57
2019-05-18T08:29:20.885Z,99477.06
2019-05-18T08:31:50.072Z,99471.02
2019-05-18T08:34:19.457Z,99465.27
2019-05-18T08:36:48.550Z,99470.86
2019-05-18T08:39:17.819Z,99471.70
2019-05-18T08:41:48.811Z,99475.45
2019-05-18T08:44:18.164Z,99466.63
2019-05-18T08:46:47.317Z,99464.58
2019-05-18T08:49:16.995Z,99465.00
2019-05-18T08:51:48.676Z,99467.44
2019-05-18T08:54:20.896Z,99465.19
2019-05-18T08:56:51.184Z,99459.28
2019-05-18T08:59:20.878Z,99471.59
2019-05-18T09:01:50.109Z,99465.75
2019-05-18T09:04:19.576Z,99463.06
2019-05-18T09:06:48.763Z,99466.66
2019-05-18T09:09:17.898Z,99464.16
2019-05-18T09:11:47.315Z,99466.50
2019-05-18T09:14:16.393Z,99468.91
2019-05-18T09:16:45.529Z,99463.18
2019-05-18T09:19:14.917Z,99472.50
2019-05-18T09:21:44.064Z,99476.70
2019-05-18T09:24:14.064Z,99470.86
2019-05-18T09:26:43.631Z,99470.27
2019-05-18T09:29:12.758Z,99469.16
2019-05-18T09:31:41.919Z,99467.13
2019-05-18T09:34:11.469Z,99473.78
2019-05-18T09:36:40.583Z,99469.81
2019-05-18T09:39:09.725Z,99463.71
2019-05-18T09:41:39.186Z,99459.06
2019-05-18T09:44:08.316Z,99462.64
2019-05-18T09:46:37.518Z,99462.86
2019-05-18T09:49:06.913Z,99454.09
2019-05-18T09:51:36.134Z,99451.95
2019-05-18T09:54:05.969Z,99452.31
2019-05-18T09:56:35.595Z,99455.30
2019-05-18T09:59:04.727Z,99450.48
2019-05-18T10:01:33.877Z,99447.64
2019-05-18T10:04:04.812Z,99445.15
2019-05-18T10:06:33.913Z,99446.95
2019-05-18T10:09:04.746Z,99446.96
2019-05-18T10:11:38.388Z,99444.45
2019-05-18T10:14:15.146Z,99442.31
2019-05-18T10:16:44.638Z,99442.97
2019-05-18T10:19:13.740Z,99443.27
2019-05-18T10:21:42.887Z,99437.44
2019-05-18T10:24:12.288Z,99431.80
2019-05-18T10:26:41.493Z,99432.42
2019-05-18T10:29:10.624Z,99435.40
2019-05-18T10:31:40.436Z,99432.72
2019-05-18T10:34:09.781Z,99433.30
2019-05-18T10:36:40.713Z,99433.28
2019-05-18T10:39:10.172Z,99429.37
2019-05-18T10:41:39.249Z,99428.71
2019-05-18T10:44:08.660Z,99423.48
2019-05-18T10:46:37.743Z,99420.13
2019-05-18T10:49:06.899Z,99420.48
2019-05-18T10:51:36.026Z,99413.60
2019-05-18T10:54:07.351Z,99417.69
2019-05-18T10:56:36.789Z,99414.94
2019-05-18T10:59:06.288Z,99415.81
2019-05-18T11:01:35.534Z,99413.08
2019-05-18T11:04:08.194Z,99405.49
2019-05-18T11:06:37.442Z,99402.92
2019-05-18T11:09:07.189Z,99407.45
2019-05-18T11:11:39.016Z,99404.30
2019-05-18T11:14:09.086Z,99403.81
2019-05-18T11:16:38.852Z,99400.04
2019-05-18T11:19:07.964Z,99394.70
2019-05-18T11:21:37.415Z,99391.75
2019-05-18T11:24:07.648Z,99386.96
2019-05-18T11:26:37.083Z,99386.03
2019-05-18T11:29:06.529Z,99389.18
2019-05-18T11:31:39.960Z,99381.59
2019-05-18T11:34:09.132Z,99373.81
2019-05-18T11:36:38.386Z,99377.28
2019-05-18T11:39:08.021Z,99369.78
2019-05-18T11:41:37.161Z,99373.18
2019-05-18T11:44:10.789Z,99371.00
2019-05-18T11:46:40.488Z,99376.84
2019-05-18T11:49:09.740Z,99374.38
2019-05-18T11:51:39.350Z,99364.05
2019-05-18T11:54:11.305Z,99366.04
2019-05-18T11:56:42.911Z,99370.70
2019-05-18T11:59:15.592Z,99364.13
2019-05-18T12:01:43.924Z,99362.09
2019-05-18T12:04:13.731Z,99358.06
2019-05-18T12:06:43.565Z,99350.56
2019-05-18T12:09:19.209Z,99343.13
2019-05-18T12:11:48.506Z,99338.78
2019-05-18T12:14:17.633Z,99338.08
2019-05-18T12:16:47.376Z,99345.69
2019-05-18T12:19:17.964Z,99342.94
2019-05-18T12:21:47.156Z,99348.66
2019-05-18T12:24:16.306Z,99339.42
2019-05-18T12:26:45.895Z,99345.60
2019-05-18T12:29:15.153Z,99345.60
2019-05-18T12:31:46.780Z,99345.88
2019-05-18T12:34:16.487Z,99345.16
2019-05-18T12:36:45.626Z,99344.44
2019-05-18T12:39:14.773Z,99338.59
2019-05-18T12:41:44.361Z,99336.01
2019-05-18T12:44:13.491Z,99336.95
2019-05-18T12:46:44.003Z,99333.47
2019-05-18T12:49:13.709Z,99333.03
2019-05-18T12:51:42.999Z,99331.69
2019-05-18T12:54:12.188Z,99326.66
2019-05-18T12:56:41.804Z,99326.59
2019-05-18T12:59:10.975Z,99322.08
2019-05-18T13:01:40.082Z,99321.27
2019-05-18T13:04:09.576Z,99320.58
2019-05-18T13:06:38.781Z,99322.16
2019-05-18T13:09:08.141Z,99323.69
2019-05-18T13:11:37.715Z,99326.39
2019-05-18T13:14:06.856Z,99310.77
2019-05-18T13:16:35.985Z,99308.87
2019-05-18T13:19:05.606Z,99316.67
2019-05-18T13:21:34.737Z,99314.56
2019-05-18T13:24:06.738Z,99306.20
2019-05-18T13:26:36.360Z,99311.59
2019-05-18T13:29:05.501Z,99302.30
2019-05-18T13:31:34.724Z,99301.77
2019-05-18T13:34:06.732Z,99305.23
2019-05-18T13:36:35.821Z,99301.91
2019-05-18T13:39:06.082Z,99306.94
2019-05-18T13:41:36.694Z,99302.17
2019-05-18T13:44:08.623Z,99294.88
2019-05-18T13:46:38.738Z,99297.80
2019-05-18T13:49:14.821Z,99288.59
2019-05-18T13:51:44.667Z,99289.82
2019-05-18T13:54:13.903Z,99290.44
2019-05-18T13:56:43.344Z,99292.34
2019-05-18T13:59:12.465Z,99283.66
2019-05-18T14:01:41.561Z,99287.80
2019-05-18T14:04:11.021Z,99284.88
2019-05-18T14:06:40.256Z,99282.34
2019-05-18T14:09:09.380Z,99280.20
2019-05-18T14:11:38.958Z,99277.46
2019-05-18T14:14:08.060Z,99270.98
2019-05-18T14:16:37.256Z,99266.14
2019-05-18T14:19:06.886Z,99259.97
2019-05-18T14:21:35.998Z,99261.02
2019-05-18T14:24:07.963Z,99262.78
2019-05-18T14:26:37.541Z,99261.32
2019-05-18T14:29:06.700Z,99254.77
2019-05-18T14:31:37.245Z,99256.32
2019-05-18T14:34:07.003Z,99253.16
2019-05-18T14:36:38.964Z,99256.20
2019-05-18T14:39:08.212Z,99251.36
2019-05-18T14:41:37.887Z,99261.05
2019-05-18T14:44:07.005Z,99255.16
2019-05-18T14:46:36.113Z,99253.37
2019-05-18T14:49:05.732Z,99261.97
2019-05-18T14:51:34.979Z,99253.77
2019-05-18T14:54:04.859Z,99260.80
2019-05-18T14:56:34.367Z,99261.03
2019-05-18T14:59:03.506Z,99255.67
2019-05-18T15:01:32.627Z,99261.91
2019-05-18T15:04:04.777Z,99256.56
2019-05-18T15:06:33.872Z,99256.72
2019-05-18T15:09:03.206Z,99250.95
2019-05-18T15:11:32.767Z,99252.61
2019-05-18T15:14:05.127Z,99254.41
2019-05-18T15:16:34.739Z,99253.48
2019-05-18T15:19:04.380Z,99249.48
2019-05-18T15:21:33.644Z,99246.26
2019-05-18T15:24:04.505Z,99252.33
2019-05-18T15:26:34.033Z,99257.98
2019-05-18T15:29:03.213Z,99258.75
2019-05-18T15:31:32.501Z,99259.46
2019-05-18T15:34:03.237Z,99254.77
2019-05-18T15:36:32.742Z,99256.69
2019-05-18T15:39:03.174Z,99269.44
2019-05-18T15:41:33.007Z,99267.59
2019-05-18T15:44:04.021Z,99269.27
2019-05-18T15:46:33.528Z,99269.77
2019-05-18T15:49:03.214Z,99263.78
2019-05-18T15:51:32.421Z,99263.18
2019-05-18T15:54:02.433Z,99273.12
2019-05-18T15:56:32.515Z,99273.37
2019-05-18T15:59:01.634Z,99278.02
2019-05-18T16:01:35.513Z,99283.98
2019-05-18T16:04:06.825Z,99283.50
2019-05-18T16:06:42.491Z,99286.47
2019-05-18T16:09:13.542Z,99282.98
2019-05-18T16:11:42.834Z,99286.20
2019-05-18T16:14:14.439Z,99282.48
2019-05-18T16:16:43.995Z,99280.00
2019-05-18T16:19:13.241Z,99281.87
2019-05-18T16:23:49.447Z,99280.64
2019-05-18T16:26:21.617Z,99281.52
2019-05-18T16:28:51.686Z,99286.09
2019-05-18T16:31:21.476Z,99292.02
2019-05-18T16:33:50.629Z,99299.66
2019-05-18T16:36:19.793Z,99302.43
2019-05-18T16:38:49.382Z,99315.41
2019-05-18T16:41:18.529Z,99320.41
2019-05-18T16:43:47.723Z,99317.42
2019-05-18T16:46:17.194Z,99323.47
2019-05-18T16:48:46.454Z,99325.50
2019-05-18T16:51:15.784Z,99330.55
2019-05-18T16:53:49.426Z,99332.97
2019-05-18T16:56:16.297Z,99342.63
2019-05-18T16:58:48.449Z,99341.80
2019-05-18T17:01:18.943Z,99336.36
2019-05-18T17:03:48.145Z,99333.76
2019-05-18T17:06:17.266Z,99325.89
2019-05-18T17:08:46.863Z,99336.40
2019-05-18T17:11:16.044Z,99336.31
2019-05-18T17:13:45.279Z,99333.41
2019-05-18T17:16:14.806Z,99330.37
2019-05-18T17:18:43.953Z,99338.25
2019-05-18T17:21:13.219Z,99330.36
2019-05-18T17:23:43.881Z,99333.33
2019-05-18T17:26:13.080Z,99328.89
2019-05-18T17:28:42.325Z,99322.32
2019-05-18T17:31:11.923Z,99315.95
2019-05-18T17:33:41.154Z,99323.63
2019-05-18T17:36:10.468Z,99322.14
2019-05-18T17:38:40.245Z,99320.47
2019-05-18T17:41:09.652Z,99315.24
2019-05-18T17:43:40.002Z,99315.73
2019-05-18T17:46:09.407Z,99312.10
2019-05-18T17:48:38.534Z,99318.05
2019-05-18T17:51:07.825Z,99308.08
2019-05-18T17:53:37.401Z,99320.92
2019-05-18T17:56:06.590Z,99317.34
2019-05-18T17:58:36.559Z,99322.45
2019-05-18T18:01:06.339Z,99336.36
2019-05-18T18:03:39.036Z,99354.25
2019-05-18T18:06:08.439Z,99374.64
2019-05-18T18:08:37.555Z,99387.14
2019-05-18T18:11:06.905Z,99393.02
2019-05-18T18:13:39.985Z,99403.86
2019-05-18T18:16:09.314Z,99418.03
2019-05-18T18:18:38.460Z,99422.88
2019-05-18T18:21:08.180Z,99425.42
2019-05-18T18:23:37.335Z,99441.47
2019-05-18T18:26:06.473Z,99446.83
2019-05-18T18:28:35.982Z,99449.81
2019-05-18T18:31:05.459Z,99454.66
2019-05-18T18:33:34.778Z,99461.13
2019-05-18T18:36:07.413Z,99471.29
2019-05-18T18:38:36.569Z,99472.63
2019-05-18T18:41:06.027Z,99486.38
2019-05-18T18:43:35.429Z,99485.47
2019-05-18T18:46:06.390Z,99498.39
2019-05-18T18:48:36.085Z,99502.79
2019-05-18T18:51:08.954Z,99504.13
2019-05-18T18:53:38.147Z,99501.70
2019-05-18T18:56:07.633Z,99501.65
2019-05-18T18:58:36.870Z,99499.66
2019-05-18T19:01:06.079Z,99498.66
2019-05-18T19:06:07.257Z,99489.34
2019-05-18T19:08:37.503Z,99493.69
2019-05-18T19:11:07.059Z,99486.70
2019-05-18T19:13:36.628Z,99482.88
2019-05-18T19:16:11.223Z,99477.42
2019-05-18T19:18:40.647Z,99473.78
2019-05-18T19:21:09.781Z,99468.14
2019-05-18T19:23:39.407Z,99462.45
2019-05-18T19:26:08.513Z,99447.08
2019-05-18T19:28:37.627Z,99441.12
2019-05-18T19:31:07.291Z,99438.58
2019-05-18T19:33:36.606Z,99450.31
2019-05-18T19:36:08.706Z,99451.92
2019-05-18T19:38:38.429Z,99458.14
2019-05-18T19:41:08.113Z,99442.00
2019-05-18T19:43:37.370Z,99436.70
2019-05-18T19:46:06.912Z,99438.98
2019-05-18T19:48:37.053Z,99428.40
2019-05-18T19:51:06.318Z,99425.06
2019-05-18T19:53:35.935Z,99415.43
2019-05-18T19:56:06.192Z,99413.08
2019-05-18T19:58:35.339Z,99412.70
2019-05-18T20:01:04.939Z,99414.49
2019-05-18T20:03:34.432Z,99411.88
2019-05-18T20:06:05.202Z,99405.36
2019-05-18T20:08:34.765Z,99401.86
2019-05-18T20:11:04.178Z,99418.19
2019-05-18T20:13:33.353Z,99428.99
2019-05-18T20:16:05.479Z,99442.28
2019-05-18T20:18:34.850Z,99454.48
2019-05-18T20:21:06.526Z,99453.58
2019-05-18T20:23:36.257Z,99462.60
2019-05-18T20:26:08.288Z,99469.27
2019-05-18T20:28:37.583Z,99473.05
2019-05-18T20:31:07.254Z,99481.57
2019-05-18T20:33:36.741Z,99479.21
2019-05-18T20:36:09.274Z,99474.72
2019-05-18T20:38:39.043Z,99479.25
2019-05-18T20:41:10.832Z,99475.56
2019-05-18T20:43:39.929Z,99474.89
2019-05-18T20:46:09.689Z,99476.90
2019-05-18T20:48:38.977Z,99481.40
2019-05-18T20:51:09.087Z,99486.92
2019-05-18T20:53:40.962Z,99485.70
2019-05-18T20:56:11.093Z,99488.72
2019-05-18T20:58:40.961Z,99492.38
2019-05-18T21:01:13.011Z,99488.67
2019-05-18T21:03:42.959Z,99488.38
2019-05-18T21:06:12.387Z,99487.48
2019-05-18T21:08:42.136Z,99490.02
2019-05-18T21:11:11.776Z,99486.79
2019-05-18T21:13:41.184Z,99485.63
2019-05-18T21:16:11.089Z,99486.09
2019-05-18T21:18:40.655Z,99481.13
2019-05-18T21:21:10.845Z,99481.23
2019-05-18T21:23:40.791Z,99474.09
2019-05-18T21:26:13.783Z,99475.23
2019-05-18T21:28:55.541Z,99472.35
2019-05-18T21:31:22.738Z,99474.55
2019-05-18T21:33:52.739Z,99472.92
2019-05-18T21:36:27.368Z,99473.88
2019-05-18T21:38:57.258Z,99472.88
2019-05-18T21:41:26.732Z,99474.23
2019-05-18T21:43:57.137Z,99477.59
2019-05-18T21:46:26.741Z,99477.61
2019-05-18T21:48:56.166Z,99480.60
2019-05-18T21:51:26.340Z,99477.89
2019-05-18T21:53:56.809Z,99480.53
2019-05-18T21:56:26.604Z,99480.20
2019-05-18T21:59:10.146Z,99472.52
2019-05-18T22:01:27.409Z,99477.16
2019-05-18T22:03:57.098Z,99472.70
2019-05-18T22:06:26.504Z,99470.53
2019-05-18T22:08:56.399Z,99469.56
2019-05-18T22:11:27.235Z,99469.39
2019-05-18T22:13:57.296Z,99467.14
2019-05-18T22:16:27.506Z,99456.93
2019-05-18T22:18:56.914Z,99456.83
2019-05-18T22:21:26.555Z,99458.92
2019-05-18T22:23:56.393Z,99457.95
2019-05-18T22:26:25.812Z,99456.94
2019-05-18T22:28:57.659Z,99453.73
2019-05-18T22:31:27.521Z,99450.88
2019-05-18T22:33:57.217Z,99452.31
2019-05-18T22:36:26.915Z,99444.05
2019-05-18T22:38:56.680Z,99446.52
2019-05-18T22:41:26.241Z,99450.20
2019-05-18T22:43:56.386Z,99446.19
2019-05-18T22:46:26.060Z,99447.13
2019-05-18T22:48:55.817Z,99444.47
2019-05-18T22:51:25.192Z,99445.48
2019-05-18T22:53:54.575Z,99446.94
2019-05-18T22:56:24.743Z,99443.50
2019-05-18T22:58:54.490Z,99447.13
2019-05-18T23:01:23.826Z,99438.95
2019-05-18T23:03:54.874Z,99438.80
2019-05-18T23:06:24.195Z,99436.95
2019-05-18T23:08:53.626Z,99440.27
2019-05-18T23:11:23.248Z,99433.61
2019-05-18T23:13:52.517Z,99426.61
2019-05-18T23:16:21.965Z,99426.06
2019-05-18T23:18:56.924Z,99418.05
2019-05-18T23:21:25.272Z,99415.75
2019-05-18T23:23:54.475Z,99418.87
2019-05-18T23:26:23.627Z,99410.86
2019-05-18T23:28:53.015Z,99408.33
2019-05-18T23:31:22.655Z,99406.45
2019-05-18T23:33:51.835Z,99407.06
2019-05-18T23:36:21.104Z,99403.77
2019-05-18T23:38:50.726Z,99398.73
2019-05-18T23:41:20.125Z,99393.71
2019-05-18T23:43:49.376Z,99398.19
2019-05-18T23:46:19.069Z,99392.31
2019-05-18T23:48:48.407Z,99390.63
2019-05-18T23:51:18.147Z,99394.97
2019-05-18T23:53:48.824Z,99392.31
2019-05-18T23:56:18.571Z,99395.62
2019-05-18T23:58:48.469Z,99395.09
